Time;durP1;ratioP1;P1;durP2;ratioP2;P2;SDS_P1;SDS_P2;PMS_P1;PMS_P2;Temp;Humidity;BMP_temperature;BMP_pressure;BME280_temperature;BME280_humidity;BME280_pressure;Samples;Min_cycle;Max_cycle;Signal;HPM_P1;HPM_P2
2021/03/19 00:01:29;;;;;;;28.27;18.10;;;;;;;-1.54;79.95;100462.95;1689112;82;25805;-86
2021/03/19 00:03:55;;;;;;;32.98;18.87;;;;;;;-1.60;79.80;100460.74;1691376;81;25654;-86
2021/03/19 00:06:22;;;;;;;32.78;19.87;;;;;;;-1.62;79.85;100460.81;1704268;82;26644;-86
2021/03/19 00:08:48;;;;;;;32.88;19.23;;;;;;;-1.65;79.74;100460.17;1692589;81;25775;-86
2021/03/19 00:11:15;;;;;;;37.33;20.17;;;;;;;-1.70;79.78;100463.44;1691291;82;25765;-86
2021/03/19 00:13:41;;;;;;;36.70;20.10;;;;;;;-1.75;79.83;100461.11;1691680;82;25803;-86
2021/03/19 00:16:08;;;;;;;41.37;21.87;;;;;;;-1.75;79.94;100456.45;1711325;82;25293;-87
2021/03/19 00:18:36;;;;;;;40.23;21.62;;;;;;;-1.76;80.00;100452.25;1713473;80;25604;-86
2021/03/19 00:21:03;;;;;;;38.23;20.97;;;;;;;-1.76;79.98;100449.69;1701745;80;25281;-86
2021/03/19 00:23:30;;;;;;;41.02;22.25;;;;;;;-1.79;79.93;100443.81;1706706;80;25359;-86
2021/03/19 00:25:56;;;;;;;41.68;22.05;;;;;;;-1.80;79.99;100451.59;1697222;81;25220;-86
2021/03/19 00:28:23;;;;;;;53.30;30.80;;;;;;;-1.85;79.95;100448.00;1692203;81;26727;-86
2021/03/19 00:30:49;;;;;;;59.35;33.63;;;;;;;-1.88;80.03;100439.66;1719712;80;26202;-86
2021/03/19 00:33:16;;;;;;;56.73;31.87;;;;;;;-1.87;80.14;100442.58;1698699;80;25778;-86
2021/03/19 00:35:43;;;;;;;55.83;32.70;;;;;;;-1.84;80.21;100436.01;1709300;80;25670;-87
2021/03/19 00:38:10;;;;;;;51.48;29.15;;;;;;;-1.83;80.16;100441.48;1725232;80;25823;-87
2021/03/19 00:40:40;;;;;;;57.65;30.97;;;;;;;-1.80;80.19;100443.45;1699286;81;25279;-87
2021/03/19 00:43:08;;;;;;;45.45;26.85;;;;;;;-1.75;80.19;100438.05;1709387;81;25607;-87
2021/03/19 00:45:35;;;;;;;43.10;23.92;;;;;;;-1.81;79.89;100439.22;1726367;80;25713;-87
2021/03/19 00:48:01;;;;;;;44.03;25.92;;;;;;;-1.85;79.84;100438.21;1717337;81;25690;-88
2021/03/19 00:50:35;;;;;;;38.50;22.90;;;;;;;-1.87;79.96;100441.30;1703199;81;25686;-87
2021/03/19 00:53:02;;;;;;;35.63;21.25;;;;;;;-1.91;79.84;100434.25;1721632;80;25694;-87
2021/03/19 00:55:29;;;;;;;41.45;21.35;;;;;;;-1.96;79.74;100427.73;1709703;80;27228;-87
2021/03/19 00:57:55;;;;;;;39.33;21.97;;;;;;;-1.99;79.84;100433.84;1696299;81;25686;-86
2021/03/19 01:00:26;;;;;;;37.00;21.12;;;;;;;-2.01;79.88;100428.78;1676778;82;25802;-86
2021/03/19 01:02:52;;;;;;;;;;;;;;;-2.03;79.86;100428.50;1691491;81;25803;-86
2021/03/19 01:05:23;;;;;;;37.78;20.70;;;;;;;-2.07;79.90;100432.97;1686688;82;25649;-87
2021/03/19 01:07:50;;;;;;;36.80;20.43;;;;;;;-2.09;80.04;100432.22;1688228;82;25752;-87
2021/03/19 01:10:30;;;;;;;36.73;19.20;;;;;;;-2.13;80.05;100429.47;1659221;83;25658;-86
2021/03/19 01:12:57;;;;;;;35.23;19.92;;;;;;;-2.15;80.11;100429.17;1682489;81;25406;-87
2021/03/19 01:15:24;;;;;;;44.13;23.12;;;;;;;-2.17;80.16;100434.36;1717183;79;25760;-87
2021/03/19 01:17:52;;;;;;;40.73;23.30;;;;;;;-2.15;80.23;100431.73;1688476;82;25820;-87
2021/03/19 01:20:20;;;;;;;42.88;23.73;;;;;;;-2.19;80.21;100427.20;1729245;80;25782;-87
2021/03/19 01:22:46;;;;;;;40.67;22.22;;;;;;;-2.19;80.32;100434.89;1679650;81;25362;-87
2021/03/19 01:25:18;;;;;;;47.10;23.85;;;;;;;-2.21;80.23;100433.31;1697177;82;25362;-87
2021/03/19 01:27:46;;;;;;;38.02;20.68;;;;;;;-2.26;80.28;100428.00;1730119;81;25514;-87
2021/03/19 01:30:22;;;;;;;42.73;20.12;;;;;;;-2.25;80.34;100429.64;1718827;81;25836;-87
2021/03/19 01:32:50;;;;;;;42.35;19.05;;;;;;;-2.27;80.25;100434.47;1707319;80;26247;-87
2021/03/19 01:35:20;;;;;;;34.15;19.05;;;;;;;-2.31;80.27;100429.97;1721727;79;25816;-87
2021/03/19 01:37:46;;;;;;;35.50;20.27;;;;;;;-2.32;80.49;100428.76;1716339;81;28068;-87
2021/03/19 01:40:15;;;;;;;33.33;18.42;;;;;;;-2.33;80.60;100433.06;1714567;81;25791;-87
2021/03/19 01:42:55;;;;;;;36.08;18.60;;;;;;;-2.31;80.65;100431.25;1709059;80;26204;-87
2021/03/19 01:46:17;;;;;;;36.20;19.23;;;;;;;-2.34;80.58;100424.20;1705029;81;26333;-87
2021/03/19 01:49:39;;;;;;;43.90;20.68;;;;;;;-2.37;80.53;100424.36;1688714;82;25451;-87
2021/03/19 01:53:00;;;;;;;40.67;19.70;;;;;;;-2.38;80.73;100418.85;1689254;82;25415;-87
2021/03/19 01:56:22;;;;;;;40.00;17.87;;;;;;;-2.36;80.75;100418.33;1683137;81;25222;-87
2021/03/19 01:59:43;;;;;;;37.45;17.23;;;;;;;-2.41;80.68;100426.23;1703052;81;25823;-87
2021/03/19 02:03:05;;;;;;;30.95;15.23;;;;;;;-2.46;80.79;100423.09;1713928;81;26360;-86
2021/03/19 02:06:27;;;;;;;31.70;15.90;;;;;;;-2.46;80.87;100423.94;1691828;82;25635;-86
2021/03/19 02:09:49;;;;;;;26.60;13.73;;;;;;;-2.50;80.76;100415.22;1700339;82;25880;-86
2021/03/19 02:13:10;;;;;;;27.52;14.40;;;;;;;-2.55;80.85;100412.89;1701129;81;25659;-86
2021/03/19 02:16:31;;;;;;;29.10;13.53;;;;;;;-2.55;81.03;100415.45;1706372;82;25328;-86
2021/03/19 02:19:53;;;;;;;28.40;15.45;;;;;;;-2.58;80.92;100410.95;1685542;82;25828;-86
2021/03/19 02:23:14;;;;;;;24.02;14.65;;;;;;;-2.65;80.86;100415.55;1703292;82;25663;-88
2021/03/19 02:26:36;;;;;;;30.45;14.87;;;;;;;-2.65;80.99;100409.14;1695347;81;25393;-88
2021/03/19 02:29:57;;;;;;;24.18;12.65;;;;;;;-2.58;81.14;100416.89;1703285;82;25375;-87
2021/03/19 02:32:26;;;;;;;23.55;11.83;;;;;;;-2.55;81.09;100415.45;1709313;81;25236;-88
2021/03/19 02:35:06;;;;;;;23.57;14.40;;;;;;;-2.55;81.09;100419.74;1696362;82;26174;-88
2021/03/19 02:37:36;;;;;;;25.30;13.48;;;;;;;-2.57;80.95;100421.55;1697288;81;25764;-88
2021/03/19 02:40:08;;;;;;;22.67;12.07;;;;;;;-2.55;81.15;100421.84;1705217;81;26200;-88
2021/03/19 02:42:34;;;;;;;25.15;13.80;;;;;;;-2.50;81.25;100419.05;1694260;82;25306;-88
2021/03/19 02:45:01;;;;;;;22.60;13.85;;;;;;;-2.47;81.19;100418.89;1705886;80;25336;-88
2021/03/19 02:47:27;;;;;;;25.65;13.65;;;;;;;-2.46;81.14;100417.97;1699850;81;26287;-87
2021/03/19 02:49:54;;;;;;;24.87;13.70;;;;;;;-2.43;81.14;100419.55;1716265;81;25364;-87
2021/03/19 02:52:23;;;;;;;30.27;16.00;;;;;;;-2.42;81.13;100421.22;1682950;83;25444;-87
2021/03/19 02:54:51;;;;;;;36.33;18.40;;;;;;;-2.39;81.14;100423.16;1707444;82;25623;-88
2021/03/19 02:57:19;;;;;;;54.67;24.12;;;;;;;-2.36;81.19;100424.27;1690753;81;25357;-89
2021/03/19 02:59:45;;;;;;;83.22;33.35;;;;;;;-2.26;81.29;100425.90;1681468;82;26416;-87
2021/03/19 03:02:11;;;;;;;52.93;23.80;;;;;;;-2.20;81.20;100426.84;1687020;82;25678;-88
2021/03/19 03:04:38;;;;;;;37.40;19.82;;;;;;;-2.14;81.19;100427.79;1707006;82;25811;-87
2021/03/19 03:07:04;;;;;;;29.00;15.03;;;;;;;-2.09;81.07;100431.39;1700479;82;26101;-87
2021/03/19 03:09:34;;;;;;;30.23;14.05;;;;;;;-2.05;81.00;100434.14;1708139;81;25359;-87
2021/03/19 03:12:02;;;;;;;25.72;15.08;;;;;;;-2.05;80.81;100436.70;1703929;81;25840;-87
2021/03/19 03:14:31;;;;;;;27.98;14.58;;;;;;;-2.07;80.70;100441.93;1673185;83;25424;-87
2021/03/19 03:17:01;;;;;;;28.55;15.15;;;;;;;-2.08;80.67;100435.14;1700283;81;25355;-87
2021/03/19 03:19:28;;;;;;;27.87;14.70;;;;;;;-2.06;80.81;100437.63;1690664;81;25337;-87
2021/03/19 03:21:55;;;;;;;30.02;16.75;;;;;;;-2.03;80.91;100436.17;1692049;82;25388;-87
2021/03/19 03:24:23;;;;;;;32.20;17.32;;;;;;;-1.92;81.09;100441.55;1698778;82;26364;-87
2021/03/19 03:26:50;;;;;;;33.28;18.73;;;;;;;-1.83;80.96;100442.77;1674624;82;25815;-87
2021/03/19 03:29:17;;;;;;;31.57;17.05;;;;;;;-1.80;80.61;100438.33;1679468;82;25421;-88
2021/03/19 03:31:44;;;;;;;28.83;16.10;;;;;;;-1.81;80.46;100447.36;1689309;82;25372;-88
2021/03/19 03:34:10;;;;;;;29.87;16.20;;;;;;;-1.79;80.51;100448.94;1686843;81;25848;-88
2021/03/19 03:36:39;;;;;;;27.58;15.60;;;;;;;-1.74;80.47;100444.84;1694476;82;25684;-87
2021/03/19 03:39:11;;;;;;;30.95;15.78;;;;;;;-1.68;80.37;100446.25;1688642;82;25364;-87
2021/03/19 03:41:38;;;;;;;25.30;14.98;;;;;;;-1.65;80.33;100448.64;1687338;82;25360;-88
2021/03/19 03:44:06;;;;;;;24.92;13.58;;;;;;;-1.62;80.14;100448.00;1698633;82;25280;-87
2021/03/19 03:46:33;;;;;;;27.77;14.75;;;;;;;-1.65;80.04;100446.08;1688552;81;25933;-87
2021/03/19 03:49:00;;;;;;;23.80;13.32;;;;;;;-1.66;80.05;100447.81;1698282;82;25823;-88
2021/03/19 03:51:28;;;;;;;27.35;15.78;;;;;;;-1.65;80.11;100441.77;1712173;81;25760;-86
2021/03/19 03:53:59;;;;;;;26.10;13.78;;;;;;;-1.67;79.96;100444.86;1701149;82;25836;-86
2021/03/19 03:56:27;;;;;;;32.50;17.60;;;;;;;-1.74;79.99;100440.19;1715025;80;25954;-86
2021/03/19 03:58:53;;;;;;;30.48;16.57;;;;;;;-1.73;80.11;100449.05;1703025;80;25795;-86
2021/03/19 04:01:19;;;;;;;32.63;17.65;;;;;;;-1.70;80.18;100450.16;1712544;81;26438;-86
2021/03/19 04:03:46;;;;;;;30.68;18.57;;;;;;;-1.69;80.18;100447.98;1715458;81;25718;-86
2021/03/19 04:06:12;;;;;;;28.73;16.97;;;;;;;-1.70;80.21;100445.04;1707108;81;25762;-86
2021/03/19 04:08:39;;;;;;;38.10;21.23;;;;;;;-1.72;80.21;100448.16;1712662;80;25424;-88
2021/03/19 04:11:10;;;;;;;46.13;22.55;;;;;;;-1.66;80.36;100452.94;1712545;81;25617;-88
2021/03/19 04:13:38;;;;;;;62.05;31.68;;;;;;;-1.63;80.33;100455.33;1685525;82;25830;-87
2021/03/19 04:16:05;;;;;;;60.83;31.95;;;;;;;-1.62;80.20;100455.69;1700045;81;25706;-86
2021/03/19 04:18:31;;;;;;;60.70;30.65;;;;;;;-1.61;80.16;100459.07;1698610;81;25858;-86
2021/03/19 04:21:00;;;;;;;53.42;26.33;;;;;;;-1.59;80.21;100456.80;1724685;79;25362;-86
2021/03/19 04:23:30;;;;;;;51.30;25.70;;;;;;;-1.61;80.14;100461.20;1728211;80;25383;-87
2021/03/19 04:25:58;;;;;;;36.77;21.10;;;;;;;-1.58;80.24;100462.31;1716798;80;33716;-86
2021/03/19 04:28:32;;;;;;;29.25;16.35;;;;;;;-1.52;80.38;100460.33;1706916;81;25493;-86
2021/03/19 04:30:59;;;;;;;29.07;16.25;;;;;;;-1.45;80.31;100460.33;1704232;81;25618;-86
2021/03/19 04:33:27;;;;;;;34.33;18.35;;;;;;;-1.47;80.11;100456.59;1689123;81;25351;-86
2021/03/19 04:36:18;;;;;;;34.65;18.73;;;;;;;-1.55;80.05;100455.38;1685832;82;25344;-86
2021/03/19 04:38:45;;;;;;;29.07;16.82;;;;;;;-1.51;80.23;100458.13;1690627;82;25901;-86
2021/03/19 04:41:12;;;;;;;27.65;16.37;;;;;;;-1.52;80.20;100454.73;1689984;81;25453;-85
2021/03/19 04:43:38;;;;;;;26.05;14.15;;;;;;;-1.46;80.42;100453.11;1684190;82;25926;-85
2021/03/19 04:46:05;;;;;;;24.47;14.58;;;;;;;-1.39;80.40;100451.86;1712774;80;25696;-85
2021/03/19 04:48:31;;;;;;;25.35;14.85;;;;;;;-1.29;80.45;100450.87;1691507;82;25386;-86
2021/03/19 04:50:57;;;;;;;24.00;14.65;;;;;;;-1.27;80.29;100450.34;1702073;82;25843;-85
2021/03/19 04:53:24;;;;;;;24.98;14.75;;;;;;;-1.20;80.32;100448.23;1688103;82;25676;-85
2021/03/19 04:55:50;;;;;;;24.27;14.30;;;;;;;-1.19;80.14;100445.59;1694642;81;25559;-87
2021/03/19 04:58:17;;;;;;;23.60;13.95;;;;;;;-1.18;80.00;100445.95;1714001;81;25577;-87
2021/03/19 05:00:44;;;;;;;22.50;14.13;;;;;;;-1.23;79.83;100445.84;1727646;80;25501;-87
2021/03/19 05:03:10;;;;;;;22.27;12.80;;;;;;;-1.24;79.87;100449.34;1723920;80;25738;-88
2021/03/19 05:05:36;;;;;;;22.77;13.08;;;;;;;-1.24;79.84;100447.59;1708040;82;25523;-86
2021/03/19 05:08:04;;;;;;;23.32;13.28;;;;;;;-1.24;79.79;100449.34;1698773;82;25711;-86
2021/03/19 05:10:34;;;;;;;24.67;13.32;;;;;;;-1.22;79.81;100453.93;1695298;81;25780;-86
2021/03/19 05:13:01;;;;;;;22.73;13.80;;;;;;;-1.24;79.63;100450.16;1684559;82;25532;-86
2021/03/19 05:15:30;;;;;;;21.60;12.63;;;;;;;-1.27;79.49;100449.52;1685118;82;25859;-86
2021/03/19 05:17:56;;;;;;;25.32;13.35;;;;;;;-1.28;79.38;100455.53;1702059;81;25820;-85
2021/03/19 05:20:23;;;;;;;24.02;13.48;;;;;;;-1.44;79.21;100456.42;1719243;81;25780;-86
2021/03/19 05:22:50;;;;;;;25.30;14.65;;;;;;;-1.48;79.52;100459.23;1715377;79;25410;-87
2021/03/19 05:25:21;;;;;;;25.30;13.60;;;;;;;-1.46;79.74;100466.38;1706215;81;25401;-87
2021/03/19 05:27:50;;;;;;;20.97;13.35;;;;;;;-1.44;79.81;100460.27;1699183;81;26042;-86
2021/03/19 05:30:17;;;;;;;25.27;14.83;;;;;;;-1.40;79.82;100460.91;1700967;81;25630;-85
2021/03/19 05:32:44;;;;;;;24.02;15.70;;;;;;;-1.39;79.81;100456.17;1720602;80;25836;-86
2021/03/19 05:35:12;;;;;;;29.72;16.37;;;;;;;-1.34;79.89;100459.27;1729672;80;25328;-85
2021/03/19 05:37:39;;;;;;;26.12;15.83;;;;;;;-1.31;79.91;100462.12;1726325;80;25264;-85
2021/03/19 05:40:11;;;;;;;23.75;16.00;;;;;;;-1.35;79.90;100458.91;1725126;80;25680;-86
2021/03/19 05:42:38;;;;;;;29.85;16.85;;;;;;;-1.38;80.05;100459.09;1714454;80;25602;-85
2021/03/19 05:45:19;;;;;;;26.20;16.87;;;;;;;-1.31;80.38;100465.97;1739541;80;25219;-86
2021/03/19 05:47:45;;;;;;;29.18;16.62;;;;;;;-1.27;80.40;100465.72;1688414;81;25821;-85
2021/03/19 05:50:31;;;;;;;25.12;14.95;;;;;;;-1.26;80.32;100470.38;1723409;81;25716;-85
2021/03/19 05:53:14;;;;;;;27.65;16.60;;;;;;;-1.26;80.41;100481.92;1665353;84;26360;-85
2021/03/19 05:55:41;;;;;;;27.32;16.12;;;;;;;-1.26;80.49;100484.48;1655242;84;25784;-85
2021/03/19 05:58:15;;;;;;;38.60;19.87;;;;;;;-1.37;80.42;100480.78;1669298;84;25869;-87
2021/03/19 06:00:42;;;;;;;43.33;21.95;;;;;;;-1.38;80.81;100480.42;1661678;84;25601;-84
2021/03/19 06:03:08;;;;;;;36.93;22.42;;;;;;;-1.29;81.15;100478.25;1633492;85;25802;-85
2021/03/19 06:05:56;;;;;;;38.83;23.57;;;;;;;-1.22;81.24;100475.27;1639751;84;25609;-85
2021/03/19 06:08:31;;;;;;;38.70;24.40;;;;;;;-1.16;81.51;100478.75;1638771;85;26377;-85
2021/03/19 06:11:03;;;;;;;33.20;19.32;;;;;;;-1.07;81.70;100475.30;1626375;84;26020;-85
2021/03/19 06:13:56;;;;;;;34.60;21.00;;;;;;;-1.02;81.78;100474.12;1630795;85;25940;-85
2021/03/19 06:16:37;;;;;;;34.88;21.87;;;;;;;-1.01;81.75;100474.94;1625741;85;25844;-85
2021/03/19 06:19:25;;;;;;;35.05;20.50;;;;;;;-0.97;81.92;100481.56;1634513;85;25671;-86
2021/03/19 06:22:05;;;;;;;33.80;20.27;;;;;;;-0.94;82.10;100478.81;1633360;85;25582;-86
2021/03/19 06:24:34;;;;;;;33.33;21.27;;;;;;;-0.90;82.20;100481.13;1642908;85;25701;-86
2021/03/19 06:27:25;;;;;;;34.08;20.43;;;;;;;-0.81;82.43;100482.33;1622635;85;25262;-87
2021/03/19 06:29:56;;;;;;;29.10;18.73;;;;;;;-0.76;82.51;100477.75;1670533;82;26135;-86
2021/03/19 06:32:28;;;;;;;29.85;19.05;;;;;;;-0.69;82.61;100483.34;1717461;81;25760;-86
2021/03/19 06:35:12;;;;;;;26.97;18.05;;;;;;;-0.58;82.76;100480.96;1702039;81;25752;-87
2021/03/19 06:37:47;;;;;;;26.57;16.30;;;;;;;-0.49;82.70;100475.77;1694821;81;26290;-86
2021/03/19 06:40:35;;;;;;;27.40;17.95;;;;;;;-0.41;82.69;100484.27;1698217;81;25625;-85
2021/03/19 06:43:28;;;;;;;28.73;18.37;;;;;;;-0.36;82.70;100471.98;1722961;80;25521;-86
2021/03/19 06:46:18;;;;;;;32.00;17.40;;;;;;;-0.31;82.62;100474.64;1714191;79;25635;-85
2021/03/19 06:48:49;;;;;;;30.02;17.32;;;;;;;-0.28;82.45;100481.34;1692138;81;26073;-85
2021/03/19 06:51:38;;;;;;;29.85;18.30;;;;;;;-0.30;82.36;100478.88;1677972;82;25529;-87
2021/03/19 06:54:15;;;;;;;33.30;19.27;;;;;;;-0.29;82.39;100477.95;1691273;81;25774;-86
2021/03/19 06:57:04;;;;;;;28.25;16.62;;;;;;;-0.31;82.46;100482.34;1703482;81;25240;-86
2021/03/19 06:59:45;;;;;;;32.33;18.37;;;;;;;-0.24;82.62;100478.97;1682051;82;25757;-87
2021/03/19 07:02:51;;;;;;;27.10;17.65;;;;;;;-0.19;82.63;100480.80;1683261;83;25323;-89
2021/03/19 07:05:45;;;;;;;28.65;18.52;;;;;;;-0.20;82.27;100479.59;1684665;81;25325;-88
2021/03/19 07:08:34;;;;;;;30.43;18.30;;;;;;;-0.19;82.36;100479.52;1705023;82;25721;-87
2021/03/19 07:11:21;;;;;;;34.20;17.45;;;;;;;-0.11;82.48;100481.59;1663573;81;25719;-88
2021/03/19 07:13:58;;;;;;;33.67;17.85;;;;;;;-0.04;82.44;100479.03;1651112;83;27672;-89
2021/03/19 07:16:35;;;;;;;30.92;17.73;;;;;;;0.02;82.31;100478.64;1659798;83;25317;-87
2021/03/19 07:19:24;;;;;;;30.12;16.77;;;;;;;0.05;82.28;100486.62;1682263;82;25523;-88
2021/03/19 07:22:22;;;;;;;29.70;17.07;;;;;;;0.08;82.14;100480.86;1702074;81;25359;-87
2021/03/19 07:25:20;;;;;;;26.10;16.80;;;;;;;0.06;81.88;100489.58;1692111;81;25804;-87
2021/03/19 07:27:57;;;;;;;30.27;17.70;;;;;;;0.05;82.09;100487.45;1710345;81;26414;-87
2021/03/19 07:30:23;;;;;;;29.75;17.40;;;;;;;0.10;82.06;100485.89;1706363;81;26022;-87
2021/03/19 07:33:28;;;;;;;30.60;18.03;;;;;;;0.09;82.05;100488.10;1699088;81;35360;-87
2021/03/19 07:36:24;;;;;;;31.42;18.62;;;;;;;0.09;82.07;100492.78;1710239;81;25116;-87
2021/03/19 07:39:13;;;;;;;37.50;20.43;;;;;;;0.11;82.12;100493.52;1701773;81;25543;-87
2021/03/19 07:42:10;;;;;;;38.48;20.70;;;;;;;0.17;82.29;100495.70;1643327;84;25618;-87
2021/03/19 07:44:59;;;;;;;32.20;17.95;;;;;;;0.25;82.27;100500.38;1634632;85;25338;-88
2021/03/19 07:47:51;;;;;;;30.43;18.63;;;;;;;0.30;82.14;100492.35;1617368;86;25413;-89
2021/03/19 07:50:28;;;;;;;34.23;19.62;;;;;;;0.35;82.11;100491.14;1648659;84;26124;-88
2021/03/19 07:53:31;;;;;;;32.23;20.10;;;;;;;0.41;82.23;100488.20;1637107;85;25997;-87
2021/03/19 07:56:19;;;;;;;28.92;16.80;;;;;;;0.46;82.09;100493.50;1641496;84;26478;-88
2021/03/19 07:59:03;;;;;;;30.75;18.37;;;;;;;0.48;81.79;100496.34;1628585;84;25415;-88
2021/03/19 08:02:02;;;;;;;26.02;15.93;;;;;;;0.53;82.18;100486.59;1643416;84;25778;-87
2021/03/19 08:04:47;;;;;;;26.12;17.50;;;;;;;0.53;82.18;100486.59;1653452;84;25626;-88
2021/03/19 08:07:38;;;;;;;31.33;19.98;;;;;;;0.57;81.98;100482.92;1606235;86;25587;-88
2021/03/19 08:10:24;;;;;;;33.15;18.55;;;;;;;0.67;81.96;100488.29;1614952;85;25716;-88
2021/03/19 08:13:05;;;;;;;34.33;21.12;;;;;;;0.81;81.99;100491.25;1617817;85;27008;-88
2021/03/19 08:15:47;;;;;;;;;;;;;;;0.78;81.37;100483.27;1637481;85;25516;-89
2021/03/19 08:18:43;;;;;;;31.00;18.32;;;;;;;0.85;81.46;100489.69;1655004;80;25271;-89
2021/03/19 08:21:34;;;;;;;31.60;19.90;;;;;;;0.81;81.26;100480.97;1684870;82;25409;-88
2021/03/19 08:24:21;;;;;;;30.08;19.12;;;;;;;0.88;81.23;100488.19;1698414;81;25652;-89
2021/03/19 08:27:12;;;;;;;26.52;17.30;;;;;;;0.87;81.02;100492.14;1724140;80;25237;-88
2021/03/19 08:29:59;;;;;;;28.05;15.83;;;;;;;0.83;80.89;100495.38;1709181;81;25371;-89
2021/03/19 08:32:45;;;;;;;26.57;19.15;;;;;;;0.80;80.72;100496.05;1716736;80;26439;-89
2021/03/19 08:35:20;;;;;;;27.20;17.57;;;;;;;0.72;80.72;100500.39;1684721;83;25841;-89
2021/03/19 08:38:15;;;;;;;26.10;18.27;;;;;;;0.73;80.69;100498.17;1684779;83;26127;-89
2021/03/19 08:40:55;;;;;;;30.50;19.23;;;;;;;0.79;80.96;100497.80;1660066;83;25361;-88
2021/03/19 08:43:33;;;;;;;;;;;;;;;0.86;81.04;100495.64;1622707;86;25402;-88
2021/03/19 08:46:08;;;;;;;27.20;16.82;;;;;;;0.99;81.16;100493.11;1627972;86;25415;-88
2021/03/19 08:48:48;;;;;;;24.65;16.17;;;;;;;1.05;80.88;100499.14;1617796;86;25293;-88
2021/03/19 08:51:22;;;;;;;29.18;18.27;;;;;;;1.01;79.91;100493.81;1608353;86;25713;-89
2021/03/19 08:54:17;;;;;;;24.82;17.17;;;;;;;0.94;80.10;100496.44;1626906;86;25554;-88
2021/03/19 08:56:49;;;;;;;27.73;18.15;;;;;;;0.91;79.91;100496.64;1641792;85;25556;-88
2021/03/19 08:59:36;;;;;;;30.37;18.27;;;;;;;0.87;79.99;100499.42;1610427;86;25880;-88
2021/03/19 09:02:34;;;;;;;28.05;18.52;;;;;;;0.91;80.28;100502.61;1625993;85;25436;-89
2021/03/19 09:05:21;;;;;;;25.10;17.48;;;;;;;0.98;80.45;100500.45;1620025;87;25639;-88
2021/03/19 09:08:29;;;;;;;24.15;16.12;;;;;;;1.02;79.99;100498.88;1617987;86;25337;-88
2021/03/19 09:11:00;;;;;;;26.97;17.12;;;;;;;1.06;79.65;100500.77;1574716;87;25338;-88
2021/03/19 09:13:27;;;;;;;27.42;18.23;;;;;;;0.96;79.60;100493.31;1638681;84;25888;-88
2021/03/19 09:15:56;;;;;;;25.80;16.93;;;;;;;0.96;79.60;100493.31;1646952;84;25538;-89
2021/03/19 09:18:45;;;;;;;28.98;18.07;;;;;;;0.95;79.44;100492.94;1649163;84;25947;-89
2021/03/19 09:21:38;;;;;;;29.70;17.45;;;;;;;0.88;79.50;100497.66;1674523;82;25365;-88
2021/03/19 09:24:18;;;;;;;24.63;17.48;;;;;;;0.89;79.88;100493.69;1680128;82;25272;-88
2021/03/19 09:26:57;;;;;;;23.50;17.55;;;;;;;0.94;79.51;100487.44;1691907;82;25385;-88
2021/03/19 09:29:31;;;;;;;27.77;18.37;;;;;;;0.89;80.10;100488.55;1701890;81;25411;-88
2021/03/19 09:32:03;;;;;;;27.95;17.07;;;;;;;0.97;80.12;100487.23;1690215;82;25767;-87
2021/03/19 09:34:47;;;;;;;23.77;16.93;;;;;;;0.97;80.12;100487.23;1690897;82;25721;-89
2021/03/19 09:37:40;;;;;;;23.90;16.45;;;;;;;1.05;79.86;100493.52;1706095;81;25344;-88
2021/03/19 09:40:15;;;;;;;25.17;17.48;;;;;;;1.03;79.52;100490.69;1697682;81;25475;-88
2021/03/19 09:42:46;;;;;;;25.10;16.93;;;;;;;1.04;79.21;100495.74;1705397;82;25401;-88
2021/03/19 09:45:19;;;;;;;21.65;14.43;;;;;;;1.10;79.13;100497.09;1707788;81;26634;-88
2021/03/19 09:47:54;;;;;;;21.87;15.35;;;;;;;1.06;78.94;100493.05;1695978;81;25263;-88
2021/03/19 09:50:26;;;;;;;21.80;14.05;;;;;;;1.06;78.94;100493.05;1702319;82;25783;-88
2021/03/19 09:53:05;;;;;;;24.57;16.60;;;;;;;1.01;79.74;100476.64;1684560;81;44688;-89
2021/03/19 09:55:48;;;;;;;27.07;17.20;;;;;;;1.16;79.61;100492.00;1695806;81;25257;-88
2021/03/19 09:58:35;;;;;;;24.40;15.88;;;;;;;1.24;79.26;100493.13;1716731;80;25697;-88
2021/03/19 10:01:16;;;;;;;23.60;16.40;;;;;;;1.35;79.25;100493.71;1709539;80;25125;-87
2021/03/19 10:03:50;;;;;;;25.17;15.95;;;;;;;1.52;79.54;100492.57;1721641;79;25664;-88
2021/03/19 10:06:33;;;;;;;22.40;14.47;;;;;;;1.68;79.35;100487.20;1693760;82;25610;-88
2021/03/19 10:09:11;;;;;;;23.52;14.40;;;;;;;1.81;79.07;100487.20;1698385;81;25261;-88
2021/03/19 10:12:01;;;;;;;20.60;14.43;;;;;;;2.00;79.13;100492.26;1701020;82;25828;-88
2021/03/19 10:14:38;;;;;;;20.37;13.83;;;;;;;2.08;78.31;100483.18;1691562;82;25244;-87
2021/03/19 10:17:19;;;;;;;21.62;12.40;;;;;;;2.10;78.04;100483.43;1714861;80;25360;-88
2021/03/19 10:19:50;;;;;;;20.65;13.50;;;;;;;2.07;77.14;100489.25;1692119;81;25412;-87
2021/03/19 10:22:34;;;;;;;17.75;12.55;;;;;;;1.90;77.22;100471.91;1678093;81;25536;-88
2021/03/19 10:25:24;;;;;;;20.60;13.08;;;;;;;2.02;76.93;100488.73;1691418;81;25862;-88
2021/03/19 10:27:56;;;;;;;20.92;13.93;;;;;;;1.98;77.45;100477.83;1708493;81;25658;-87
2021/03/19 10:30:33;;;;;;;18.40;11.78;;;;;;;2.37;77.54;100488.84;1706565;80;25399;-87
2021/03/19 10:33:08;;;;;;;20.08;13.03;;;;;;;2.37;75.80;100490.12;1636307;84;25643;-87
2021/03/19 10:35:39;;;;;;;16.60;11.53;;;;;;;2.33;75.29;100494.69;1656348;83;25527;-87
2021/03/19 10:38:17;;;;;;;17.50;11.83;;;;;;;2.23;75.18;100498.84;1683232;83;25906;-88
2021/03/19 10:40:47;;;;;;;19.17;11.65;;;;;;;2.16;75.24;100496.36;1653466;83;25769;-88
2021/03/19 10:43:19;;;;;;;;;;;;;;;1.99;75.53;100471.73;1666815;83;25780;-88
2021/03/19 10:45:51;;;;;;;18.48;11.88;;;;;;;2.15;75.90;100492.93;1662646;83;25654;-88
2021/03/19 10:48:28;;;;;;;20.72;11.48;;;;;;;2.12;75.90;100475.58;1651060;83;25789;-88
2021/03/19 10:51:06;;;;;;;19.60;12.47;;;;;;;2.20;75.18;100490.86;1671737;83;25774;-88
2021/03/19 10:53:57;;;;;;;19.35;12.70;;;;;;;2.21;75.17;100495.10;1675041;83;25718;-88
2021/03/19 10:56:27;;;;;;;19.95;12.58;;;;;;;2.30;75.71;100488.47;1671597;84;25543;-88
2021/03/19 10:59:19;;;;;;;19.07;12.73;;;;;;;2.33;75.36;100489.53;1655019;84;25636;-88
2021/03/19 11:01:49;;;;;;;19.25;12.30;;;;;;;2.43;75.12;100486.66;1668867;84;26750;-88
2021/03/19 11:04:35;;;;;;;17.00;12.53;;;;;;;2.48;75.01;100485.03;1673160;82;25742;-88
2021/03/19 11:07:27;;;;;;;19.90;12.47;;;;;;;2.58;74.98;100481.33;1696996;83;25372;-88
2021/03/19 11:10:28;;;;;;;16.10;9.88;;;;;;;2.64;74.97;100481.70;1711269;80;25230;-88
2021/03/19 11:13:00;;;;;;;;;;;;;;;2.68;73.72;100481.03;1740347;81;25491;-88
2021/03/19 11:15:32;;;;;;;15.68;10.43;;;;;;;2.59;73.62;100481.67;1735087;80;25297;-88
2021/03/19 11:18:42;;;;;;;14.93;9.85;;;;;;;2.59;72.86;100484.26;1735898;81;25994;-88
2021/03/19 11:21:09;;;;;;;18.75;10.13;;;;;;;2.54;71.94;100478.63;1741322;80;25855;-89
2021/03/19 11:23:46;;;;;;;19.40;11.55;;;;;;;2.45;72.87;100477.52;1736826;80;25737;-88
2021/03/19 11:26:28;;;;;;;17.20;11.65;;;;;;;2.59;73.27;100476.08;1736409;80;25274;-88
2021/03/19 11:29:20;;;;;;;14.18;10.05;;;;;;;2.78;73.60;100479.44;1735631;80;25712;-88
2021/03/19 11:32:07;;;;;;;18.87;10.75;;;;;;;2.87;73.59;100475.36;1739534;80;25602;-88
2021/03/19 11:34:54;;;;;;;18.73;11.53;;;;;;;2.91;72.83;100485.80;1737583;80;25184;-88
2021/03/19 11:37:25;;;;;;;;;;;;;;;2.86;72.27;100476.27;1751428;80;25645;-88
2021/03/19 11:40:24;;;;;;;15.10;9.23;;;;;;;2.83;71.65;100486.82;1754057;80;25555;-87
2021/03/19 11:42:54;;;;;;;12.75;8.50;;;;;;;2.84;71.63;100483.33;1723056;80;25263;-88
2021/03/19 11:45:24;;;;;;;17.35;10.25;;;;;;;2.79;71.28;100476.38;1746244;80;25767;-88
2021/03/19 11:48:01;;;;;;;;;;;;;;;2.91;72.18;100472.07;1754052;80;25522;-88
2021/03/19 11:50:35;;;;;;;12.55;8.18;;;;;;;3.14;72.56;100471.20;1751367;80;25947;-88
2021/03/19 11:53:09;;;;;;;16.15;9.28;;;;;;;3.27;71.28;100469.80;1746061;80;25469;-88
2021/03/19 11:55:43;;;;;;;15.28;8.80;;;;;;;3.25;69.26;100469.93;1754253;80;25692;-87
2021/03/19 11:58:13;;;;;;;16.57;9.60;;;;;;;3.17;69.60;100470.16;1746661;80;25771;-88
2021/03/19 12:00:42;;;;;;;13.83;9.08;;;;;;;3.05;69.38;100471.87;1752500;80;25557;-87
2021/03/19 12:03:16;;;;;;;13.90;8.85;;;;;;;2.97;69.79;100472.42;1752348;80;25222;-87